RYR786 LKPR-EDDP
Flight info
| Callsign | RYR786 |
|---|---|
| Flight time | 0h 53m |
| Altitude | 30000 |
| Route | ARTUP DCT BEFRE T204 IVDUF T951 YAWOY YAWOY1R |
| Aircraft | B738/M-SDE2E3FGHIRWXY/LB1 |
Departure
| Time | 2026-05-06 18:13 |
|---|---|
| Airport | Václav Havel Airport Prague (LKPR) |
Arrival
| Time | 2026-05-06 19:07 |
|---|---|
| Airport | Leipzig/Halle Airport (EDDP) |
| Time | Latitude | Longitude | Altitude | Speed | Heading |
|---|---|---|---|---|---|
| 2026-05-06 17:13 | 50.10626 | 14.26157 | 1182 ft | 0 kts | 59° |
| 2026-05-06 17:41 | 50.10626 | 14.26158 | 1182 ft | 0 kts | 59° |
| 2026-05-06 17:52 | 50.10626 | 14.26157 | 1182 ft | 1 kts | 59° |
| 2026-05-06 17:52 | 50.10618 | 14.26136 | 1182 ft | 2 kts | 60° |
| 2026-05-06 17:52 | 50.10610 | 14.26114 | 1182 ft | 2 kts | 59° |
| 2026-05-06 17:52 | 50.10601 | 14.26094 | 1183 ft | 2 kts | 26° |
| 2026-05-06 17:53 | 50.10589 | 14.26090 | 1184 ft | 1 kts | 334° |
| 2026-05-06 17:53 | 50.10586 | 14.26092 | 1184 ft | 0 kts | 331° |
| 2026-05-06 17:55 | 50.10590 | 14.26086 | 1184 ft | 2 kts | 312° |
| 2026-05-06 17:55 | 50.10591 | 14.26064 | 1183 ft | 2 kts | 262° |
| 2026-05-06 17:55 | 50.10557 | 14.26005 | 1185 ft | 0 kts | 221° |
| 2026-05-06 17:55 | 50.10534 | 14.25972 | 1186 ft | 11 kts | 226° |
| 2026-05-06 17:56 | 50.10505 | 14.25880 | 1184 ft | 0 kts | 259° |
| 2026-05-06 17:56 | 50.10505 | 14.25879 | 1184 ft | 0 kts | 259° |
| 2026-05-06 17:57 | 50.10500 | 14.25838 | 1183 ft | 11 kts | 258° |
| 2026-05-06 17:57 | 50.10526 | 14.25731 | 1181 ft | 11 kts | 342° |
| 2026-05-06 17:57 | 50.10597 | 14.25733 | 1180 ft | 11 kts | 329° |
| 2026-05-06 17:58 | 50.10623 | 14.25679 | 1177 ft | 11 kts | 301° |
| 2026-05-06 17:58 | 50.10677 | 14.25535 | 1174 ft | 17 kts | 299° |
| 2026-05-06 17:58 | 50.10737 | 14.25361 | 1169 ft | 18 kts | 299° |
| 2026-05-06 17:58 | 50.10788 | 14.25221 | 1170 ft | 7 kts | 297° |
| 2026-05-06 17:59 | 50.10790 | 14.25216 | 1171 ft | 2 kts | 296° |
| 2026-05-06 17:59 | 50.10795 | 14.25200 | 1169 ft | 0 kts | 292° |
| 2026-05-06 18:11 | 50.10796 | 14.25194 | 1172 ft | 4 kts | 292° |
| 2026-05-06 18:12 | 50.10806 | 14.25139 | 1170 ft | 4 kts | 281° |
| 2026-05-06 18:12 | 50.10810 | 14.25109 | 1172 ft | 5 kts | 280° |
| 2026-05-06 18:12 | 50.10818 | 14.24993 | 1173 ft | 14 kts | 275° |
| 2026-05-06 18:12 | 50.10821 | 14.24838 | 1171 ft | 15 kts | 266° |
| 2026-05-06 18:13 | 50.10769 | 14.24577 | 1173 ft | 58 kts | 246° |
| 2026-05-06 18:13 | 50.10473 | 14.23597 | 1186 ft | 139 kts | 244° |
| 2026-05-06 18:13 | 50.09970 | 14.21929 | 1426 ft | 189 kts | 244° |
| 2026-05-06 18:13 | 50.09367 | 14.20033 | 2231 ft | 201 kts | 244° |
| 2026-05-06 18:14 | 50.08770 | 14.18000 | 2920 ft | 210 kts | 249° |
| 2026-05-06 18:14 | 50.08241 | 14.15936 | 3768 ft | 194 kts | 245° |
| 2026-05-06 18:14 | 50.07711 | 14.14037 | 4637 ft | 189 kts | 248° |
| 2026-05-06 18:14 | 50.07220 | 14.12074 | 5212 ft | 200 kts | 248° |
| 2026-05-06 18:15 | 50.06515 | 14.10116 | 5390 ft | 224 kts | 225° |
| 2026-05-06 18:15 | 50.05135 | 14.08799 | 5317 ft | 240 kts | 195° |
| 2026-05-06 18:15 | 50.03468 | 14.08621 | 5238 ft | 245 kts | 169° |
| 2026-05-06 18:15 | 50.01974 | 14.09863 | 4968 ft | 250 kts | 133° |
| 2026-05-06 18:16 | 50.01216 | 14.12247 | 4876 ft | 248 kts | 99° |
| 2026-05-06 18:16 | 50.01211 | 14.14928 | 4920 ft | 256 kts | 86° |
| 2026-05-06 18:16 | 50.01411 | 14.17781 | 4999 ft | 272 kts | 84° |
| 2026-05-06 18:16 | 50.01656 | 14.20695 | 5002 ft | 277 kts | 84° |
| 2026-05-06 18:17 | 50.01913 | 14.23655 | 4993 ft | 275 kts | 84° |
| 2026-05-06 18:17 | 50.02164 | 14.26596 | 4989 ft | 273 kts | 84° |
| 2026-05-06 18:17 | 50.02422 | 14.29509 | 4988 ft | 271 kts | 84° |
| 2026-05-06 18:17 | 50.02679 | 14.32409 | 4994 ft | 270 kts | 83° |
| 2026-05-06 18:18 | 50.02898 | 14.35305 | 5004 ft | 269 kts | 89° |
| 2026-05-06 18:18 | 50.02789 | 14.38197 | 4994 ft | 269 kts | 102° |
| 2026-05-06 18:18 | 50.02077 | 14.40841 | 4988 ft | 266 kts | 130° |
| 2026-05-06 18:18 | 50.00657 | 14.42627 | 4992 ft | 263 kts | 158° |
| 2026-05-06 18:19 | 49.98879 | 14.43160 | 5009 ft | 262 kts | 181° |
| 2026-05-06 18:19 | 49.97052 | 14.43027 | 5003 ft | 263 kts | 184° |
| 2026-05-06 18:19 | 49.95222 | 14.42808 | 4998 ft | 265 kts | 185° |
| 2026-05-06 18:19 | 49.93381 | 14.42575 | 5001 ft | 265 kts | 185° |
| 2026-05-06 18:20 | 49.91544 | 14.42336 | 4995 ft | 265 kts | 185° |
| 2026-05-06 18:20 | 49.89710 | 14.42097 | 4992 ft | 264 kts | 185° |
| 2026-05-06 18:20 | 49.87908 | 14.41859 | 4991 ft | 262 kts | 185° |
| 2026-05-06 18:20 | 49.86094 | 14.41617 | 4990 ft | 262 kts | 185° |
| 2026-05-06 18:21 | 49.84259 | 14.41378 | 4983 ft | 260 kts | 182° |
| 2026-05-06 18:21 | 49.82521 | 14.41851 | 4985 ft | 260 kts | 155° |
| 2026-05-06 18:21 | 49.81098 | 14.43592 | 5002 ft | 266 kts | 130° |
| 2026-05-06 18:21 | 49.80002 | 14.45934 | 4997 ft | 270 kts | 126° |
| 2026-05-06 18:22 | 49.78962 | 14.48334 | 4985 ft | 267 kts | 125° |
| 2026-05-06 18:22 | 49.77940 | 14.50717 | 4985 ft | 265 kts | 125° |
| 2026-05-06 18:22 | 49.76928 | 14.53086 | 4981 ft | 263 kts | 125° |
| 2026-05-06 18:22 | 49.75921 | 14.55447 | 4988 ft | 263 kts | 125° |
| 2026-05-06 18:23 | 49.74911 | 14.57813 | 4996 ft | 264 kts | 125° |
| 2026-05-06 18:23 | 49.74055 | 14.60349 | 4969 ft | 270 kts | 105° |
| 2026-05-06 18:23 | 49.74008 | 14.63238 | 4983 ft | 275 kts | 78° |
| 2026-05-06 18:23 | 49.74844 | 14.65883 | 4988 ft | 277 kts | 50° |
| 2026-05-06 18:24 | 49.76383 | 14.67664 | 4992 ft | 280 kts | 23° |
| 2026-05-06 18:24 | 49.78274 | 14.68335 | 4999 ft | 280 kts | 7° |
| 2026-05-06 18:24 | 49.80216 | 14.68650 | 4986 ft | 281 kts | 5° |
| 2026-05-06 18:24 | 49.82159 | 14.68927 | 4988 ft | 281 kts | 5° |
| 2026-05-06 18:25 | 49.84107 | 14.69195 | 4994 ft | 280 kts | 5° |
| 2026-05-06 18:25 | 49.86049 | 14.69460 | 4998 ft | 280 kts | 5° |
| 2026-05-06 18:25 | 49.87995 | 14.69722 | 4999 ft | 280 kts | 5° |
| 2026-05-06 18:25 | 49.89929 | 14.70121 | 4997 ft | 281 kts | 10° |
| 2026-05-06 18:26 | 49.91863 | 14.70705 | 5264 ft | 286 kts | 11° |
| 2026-05-06 18:26 | 49.93832 | 14.71315 | 6146 ft | 291 kts | 11° |
| 2026-05-06 18:26 | 49.95836 | 14.71912 | 7016 ft | 295 kts | 9° |
| 2026-05-06 18:26 | 49.97831 | 14.72479 | 7917 ft | 297 kts | 8° |
| 2026-05-06 18:27 | 49.99885 | 14.73041 | 8776 ft | 302 kts | 7° |
| 2026-05-06 18:27 | 50.01972 | 14.73593 | 9649 ft | 306 kts | 7° |
| 2026-05-06 18:27 | 50.04105 | 14.74146 | 10288 ft | 319 kts | 7° |
| 2026-05-06 18:27 | 50.06389 | 14.74726 | 10514 ft | 344 kts | 7° |
| 2026-05-06 18:28 | 50.08797 | 14.75334 | 11120 ft | 355 kts | 7° |
| 2026-05-06 18:28 | 50.11246 | 14.75954 | 11924 ft | 358 kts | 6° |
| 2026-05-06 18:28 | 50.13722 | 14.76573 | 12774 ft | 361 kts | 6° |
| 2026-05-06 18:28 | 50.16217 | 14.77201 | 13572 ft | 366 kts | 7° |
| 2026-05-06 18:29 | 50.18749 | 14.77843 | 14270 ft | 371 kts | 7° |
| 2026-05-06 18:29 | 50.21312 | 14.78492 | 14959 ft | 376 kts | 7° |
| 2026-05-06 18:29 | 50.23917 | 14.79150 | 15576 ft | 381 kts | 7° |
| 2026-05-06 18:29 | 50.26546 | 14.79815 | 15733 ft | 383 kts | 7° |
| 2026-05-06 18:30 | 50.29177 | 14.80481 | 15752 ft | 384 kts | 7° |
| 2026-05-06 18:30 | 50.31813 | 14.81148 | 15758 ft | 383 kts | 7° |
| 2026-05-06 18:30 | 50.34449 | 14.81817 | 15760 ft | 383 kts | 7° |
| 2026-05-06 18:30 | 50.37083 | 14.82484 | 15756 ft | 383 kts | 7° |
| 2026-05-06 18:31 | 50.39713 | 14.83151 | 15760 ft | 383 kts | 7° |
| 2026-05-06 18:31 | 50.42317 | 14.83813 | 15765 ft | 383 kts | 7° |
| 2026-05-06 18:31 | 50.44956 | 14.84483 | 15763 ft | 383 kts | 7° |
| 2026-05-06 18:31 | 50.47598 | 14.85156 | 15770 ft | 385 kts | 7° |
| 2026-05-06 18:32 | 50.50273 | 14.85837 | 16184 ft | 392 kts | 7° |
| 2026-05-06 18:32 | 50.52967 | 14.86524 | 17020 ft | 392 kts | 7° |
| 2026-05-06 18:32 | 50.55662 | 14.87212 | 17769 ft | 395 kts | 7° |
| 2026-05-06 18:32 | 50.58400 | 14.87912 | 18382 ft | 401 kts | 7° |
| 2026-05-06 18:33 | 50.61164 | 14.88620 | 18956 ft | 405 kts | 7° |
| 2026-05-06 18:33 | 50.63958 | 14.89336 | 19570 ft | 408 kts | 7° |
| 2026-05-06 18:33 | 50.66758 | 14.89734 | 20147 ft | 409 kts | 355° |
| 2026-05-06 18:33 | 50.69577 | 14.89165 | 20760 ft | 407 kts | 342° |
| 2026-05-06 18:34 | 50.72234 | 14.87703 | 21371 ft | 404 kts | 330° |
| 2026-05-06 18:34 | 50.74741 | 14.85679 | 21957 ft | 406 kts | 328° |
| 2026-05-06 18:34 | 50.77249 | 14.83563 | 22527 ft | 410 kts | 327° |
| 2026-05-06 18:34 | 50.79775 | 14.81429 | 23073 ft | 414 kts | 328° |
| 2026-05-06 18:35 | 50.82342 | 14.79289 | 23579 ft | 418 kts | 328° |
| 2026-05-06 18:35 | 50.84928 | 14.77160 | 24065 ft | 421 kts | 328° |
| 2026-05-06 18:35 | 50.87524 | 14.75037 | 24558 ft | 423 kts | 328° |
| 2026-05-06 18:35 | 50.90157 | 14.72886 | 25074 ft | 424 kts | 328° |
| 2026-05-06 18:36 | 50.92778 | 14.70760 | 25653 ft | 424 kts | 330° |
| 2026-05-06 18:36 | 50.95535 | 14.69001 | 25826 ft | 436 kts | 339° |
| 2026-05-06 18:36 | 50.98481 | 14.67760 | 25791 ft | 435 kts | 342° |
| 2026-05-06 18:36 | 51.01412 | 14.66676 | 25783 ft | 430 kts | 343° |
| 2026-05-06 18:37 | 51.04324 | 14.65604 | 25778 ft | 429 kts | 342° |
| 2026-05-06 18:37 | 51.06251 | 14.64872 | 25787 ft | 431 kts | 342° |
| 2026-05-06 18:37 | 51.10130 | 14.63341 | 25786 ft | 434 kts | 342° |
| 2026-05-06 18:37 | 51.13045 | 14.62164 | 25778 ft | 427 kts | 341° |
| 2026-05-06 18:38 | 51.15872 | 14.61022 | 25771 ft | 412 kts | 341° |
| 2026-05-06 18:38 | 51.18452 | 14.59370 | 25763 ft | 386 kts | 321° |
| 2026-05-06 18:38 | 51.20421 | 14.56690 | 25701 ft | 361 kts | 303° |
| 2026-05-06 18:38 | 51.21744 | 14.53414 | 25419 ft | 346 kts | 288° |
| 2026-05-06 18:39 | 51.22560 | 14.49840 | 24939 ft | 341 kts | 277° |
| 2026-05-06 18:39 | 51.22836 | 14.46130 | 24503 ft | 333 kts | 264° |
| 2026-05-06 18:39 | 51.22745 | 14.42462 | 24161 ft | 329 kts | 261° |
| 2026-05-06 18:40 | 51.22389 | 14.35213 | 23442 ft | 326 kts | 261° |
| 2026-05-06 18:40 | 51.22206 | 14.31657 | 23036 ft | 325 kts | 261° |
| 2026-05-06 18:40 | 51.22027 | 14.28072 | 22661 ft | 323 kts | 261° |
| 2026-05-06 18:40 | 51.21855 | 14.24505 | 22282 ft | 321 kts | 261° |
| 2026-05-06 18:41 | 51.21687 | 14.20961 | 21903 ft | 320 kts | 261° |
| 2026-05-06 18:41 | 51.21522 | 14.17430 | 21524 ft | 318 kts | 261° |
| 2026-05-06 18:41 | 51.21414 | 14.15095 | 21277 ft | 317 kts | 262° |
| 2026-05-06 18:41 | 51.21196 | 14.10415 | 20780 ft | 315 kts | 262° |
| 2026-05-06 18:42 | 51.21089 | 14.08109 | 20552 ft | 314 kts | 262° |
| 2026-05-06 18:42 | 51.20928 | 14.04647 | 20201 ft | 313 kts | 262° |
| 2026-05-06 18:42 | 51.20766 | 14.01195 | 19852 ft | 311 kts | 262° |
| 2026-05-06 18:42 | 51.20604 | 13.97759 | 19511 ft | 310 kts | 262° |
| 2026-05-06 18:43 | 51.20441 | 13.94335 | 19177 ft | 308 kts | 262° |
| 2026-05-06 18:43 | 51.20279 | 13.90936 | 18842 ft | 307 kts | 262° |
| 2026-05-06 18:43 | 51.20116 | 13.87544 | 18512 ft | 306 kts | 262° |
| 2026-05-06 18:43 | 51.19952 | 13.84165 | 18190 ft | 304 kts | 262° |
| 2026-05-06 18:44 | 51.19789 | 13.80802 | 17835 ft | 303 kts | 262° |
| 2026-05-06 18:44 | 51.19625 | 13.77456 | 17468 ft | 302 kts | 262° |
| 2026-05-06 18:44 | 51.19462 | 13.74133 | 17118 ft | 300 kts | 262° |
| 2026-05-06 18:44 | 51.19301 | 13.70862 | 16820 ft | 298 kts | 262° |
| 2026-05-06 18:45 | 51.19138 | 13.67585 | 16559 ft | 296 kts | 262° |
| 2026-05-06 18:45 | 51.18974 | 13.64312 | 16300 ft | 296 kts | 262° |
| 2026-05-06 18:45 | 51.18809 | 13.61036 | 16044 ft | 296 kts | 262° |
| 2026-05-06 18:45 | 51.18643 | 13.57760 | 15801 ft | 297 kts | 262° |
| 2026-05-06 18:46 | 51.18476 | 13.54480 | 15549 ft | 297 kts | 262° |
| 2026-05-06 18:46 | 51.18309 | 13.51200 | 15303 ft | 297 kts | 262° |
| 2026-05-06 18:46 | 51.18140 | 13.47915 | 15059 ft | 297 kts | 262° |
| 2026-05-06 18:46 | 51.17971 | 13.44635 | 14810 ft | 297 kts | 262° |
| 2026-05-06 18:47 | 51.17802 | 13.41365 | 14560 ft | 296 kts | 263° |
| 2026-05-06 18:47 | 51.17631 | 13.38102 | 14318 ft | 295 kts | 263° |
| 2026-05-06 18:47 | 51.17460 | 13.34848 | 14084 ft | 294 kts | 263° |
| 2026-05-06 18:47 | 51.17352 | 13.31598 | 13839 ft | 293 kts | 266° |
| 2026-05-06 18:48 | 51.17337 | 13.28361 | 13606 ft | 292 kts | 267° |
| 2026-05-06 18:48 | 51.17342 | 13.25143 | 13336 ft | 290 kts | 268° |
| 2026-05-06 18:48 | 51.17347 | 13.21938 | 13069 ft | 288 kts | 267° |
| 2026-05-06 18:48 | 51.17348 | 13.18751 | 12798 ft | 286 kts | 267° |
| 2026-05-06 18:49 | 51.17345 | 13.15628 | 12546 ft | 284 kts | 267° |
| 2026-05-06 18:49 | 51.17338 | 13.12485 | 12286 ft | 283 kts | 267° |
| 2026-05-06 18:49 | 51.17329 | 13.09360 | 12029 ft | 281 kts | 267° |
| 2026-05-06 18:49 | 51.17318 | 13.06260 | 11840 ft | 279 kts | 267° |
| 2026-05-06 18:50 | 51.17305 | 13.03135 | 11795 ft | 284 kts | 267° |
| 2026-05-06 18:50 | 51.17291 | 12.99971 | 11577 ft | 287 kts | 267° |
| 2026-05-06 18:50 | 51.17277 | 12.96796 | 11318 ft | 285 kts | 267° |
| 2026-05-06 18:50 | 51.17263 | 12.93664 | 11059 ft | 281 kts | 267° |
| 2026-05-06 18:51 | 51.17247 | 12.90570 | 10815 ft | 277 kts | 267° |
| 2026-05-06 18:51 | 51.17230 | 12.87512 | 10566 ft | 274 kts | 267° |
| 2026-05-06 18:51 | 51.17213 | 12.84499 | 10318 ft | 271 kts | 267° |
| 2026-05-06 18:51 | 51.17428 | 12.81517 | 10049 ft | 274 kts | 286° |
| 2026-05-06 18:52 | 51.18142 | 12.78700 | 9870 ft | 274 kts | 290° |
| 2026-05-06 18:52 | 51.18889 | 12.75927 | 9806 ft | 277 kts | 290° |
| 2026-05-06 18:52 | 51.19647 | 12.73103 | 9773 ft | 276 kts | 290° |
| 2026-05-06 18:52 | 51.20396 | 12.70298 | 9765 ft | 274 kts | 290° |
| 2026-05-06 18:53 | 51.21137 | 12.67496 | 9767 ft | 275 kts | 290° |
| 2026-05-06 18:53 | 51.21879 | 12.64678 | 9771 ft | 276 kts | 290° |
| 2026-05-06 18:53 | 51.22618 | 12.61860 | 9764 ft | 276 kts | 290° |
| 2026-05-06 18:53 | 51.23365 | 12.59008 | 9527 ft | 280 kts | 290° |
| 2026-05-06 18:54 | 51.24110 | 12.56151 | 9265 ft | 277 kts | 290° |
| 2026-05-06 18:54 | 51.24845 | 12.53332 | 9003 ft | 274 kts | 290° |
| 2026-05-06 18:54 | 51.25553 | 12.50535 | 8739 ft | 269 kts | 285° |
| 2026-05-06 18:54 | 51.25740 | 12.47618 | 8470 ft | 262 kts | 264° |
| 2026-05-06 18:55 | 51.25599 | 12.44723 | 8221 ft | 260 kts | 264° |
| 2026-05-06 18:55 | 51.25459 | 12.41889 | 7976 ft | 259 kts | 264° |
| 2026-05-06 18:55 | 51.25324 | 12.39035 | 7713 ft | 257 kts | 264° |
| 2026-05-06 18:55 | 51.25190 | 12.36198 | 7460 ft | 256 kts | 264° |
| 2026-05-06 18:56 | 51.25059 | 12.33368 | 7216 ft | 255 kts | 264° |
| 2026-05-06 18:56 | 51.24927 | 12.30544 | 6967 ft | 254 kts | 264° |
| 2026-05-06 18:56 | 51.24796 | 12.27735 | 6826 ft | 254 kts | 264° |
| 2026-05-06 18:56 | 51.24872 | 12.24894 | 6786 ft | 258 kts | 279° |
| 2026-05-06 18:57 | 51.25293 | 12.22115 | 6791 ft | 257 kts | 283° |
| 2026-05-06 18:57 | 51.25775 | 12.19364 | 6782 ft | 257 kts | 284° |
| 2026-05-06 18:57 | 51.26255 | 12.16601 | 6775 ft | 258 kts | 283° |
| 2026-05-06 18:57 | 51.26720 | 12.13836 | 6775 ft | 258 kts | 283° |
| 2026-05-06 18:58 | 51.27176 | 12.11053 | 6788 ft | 260 kts | 283° |
| 2026-05-06 18:58 | 51.27624 | 12.08272 | 6776 ft | 257 kts | 283° |
| 2026-05-06 18:58 | 51.28060 | 12.05545 | 6780 ft | 256 kts | 283° |
| 2026-05-06 18:58 | 51.28494 | 12.02776 | 6781 ft | 258 kts | 281° |
| 2026-05-06 18:59 | 51.28671 | 11.99931 | 6726 ft | 258 kts | 272° |
| 2026-05-06 18:59 | 51.28764 | 11.97074 | 6673 ft | 257 kts | 272° |
| 2026-05-06 18:59 | 51.28864 | 11.94233 | 6610 ft | 255 kts | 272° |
| 2026-05-06 18:59 | 51.28899 | 11.91400 | 6534 ft | 255 kts | 269° |
| 2026-05-06 19:00 | 51.28806 | 11.88580 | 6468 ft | 254 kts | 262° |
| 2026-05-06 19:00 | 51.28564 | 11.85798 | 6438 ft | 252 kts | 261° |
| 2026-05-06 19:00 | 51.28288 | 11.83020 | 6306 ft | 254 kts | 260° |
| 2026-05-06 19:00 | 51.28120 | 11.80200 | 6237 ft | 253 kts | 274° |
| 2026-05-06 19:01 | 51.28633 | 11.77562 | 6164 ft | 259 kts | 300° |
| 2026-05-06 19:01 | 51.29930 | 11.75530 | 5932 ft | 266 kts | 329° |
| 2026-05-06 19:01 | 51.31691 | 11.74662 | 5708 ft | 267 kts | 351° |
| 2026-05-06 19:01 | 51.33535 | 11.74524 | 5470 ft | 265 kts | 6° |
| 2026-05-06 19:02 | 51.35246 | 11.75573 | 5227 ft | 265 kts | 35° |
| 2026-05-06 19:02 | 51.36505 | 11.77699 | 5026 ft | 263 kts | 52° |
| 2026-05-06 19:02 | 51.37571 | 11.80062 | 4798 ft | 261 kts | 54° |
| 2026-05-06 19:02 | 51.38620 | 11.82451 | 4452 ft | 265 kts | 54° |
| 2026-05-06 19:03 | 51.39523 | 11.85078 | 3942 ft | 274 kts | 68° |
| 2026-05-06 19:03 | 51.40132 | 11.87997 | 3457 ft | 279 kts | 75° |
| 2026-05-06 19:03 | 51.40306 | 11.91098 | 3011 ft | 280 kts | 93° |
| 2026-05-06 19:03 | 51.40176 | 11.94163 | 2878 ft | 271 kts | 95° |
| 2026-05-06 19:04 | 51.40032 | 11.97110 | 2797 ft | 260 kts | 90° |
| 2026-05-06 19:04 | 51.40181 | 11.99929 | 2794 ft | 248 kts | 84° |
| 2026-05-06 19:04 | 51.40365 | 12.02665 | 2788 ft | 247 kts | 84° |
| 2026-05-06 19:04 | 51.40497 | 12.05467 | 2329 ft | 256 kts | 87° |
| 2026-05-06 19:05 | 51.40600 | 12.08188 | 1996 ft | 241 kts | 86° |
| 2026-05-06 19:05 | 51.40715 | 12.10743 | 1675 ft | 216 kts | 86° |
| 2026-05-06 19:05 | 51.40819 | 12.13015 | 1396 ft | 194 kts | 85° |
| 2026-05-06 19:05 | 51.40912 | 12.15054 | 1143 ft | 173 kts | 84° |
| 2026-05-06 19:06 | 51.40993 | 12.16842 | 895 ft | 151 kts | 84° |
| 2026-05-06 19:06 | 51.41065 | 12.18397 | 739 ft | 137 kts | 83° |
| 2026-05-06 19:06 | 51.41132 | 12.19894 | 583 ft | 130 kts | 84° |
| 2026-05-06 19:06 | 51.41198 | 12.21329 | 464 ft | 124 kts | 81° |
| 2026-05-06 19:07 | 51.41250 | 12.22259 | 455 ft | 24 kts | 85° |
| 2026-05-06 19:07 | 51.41260 | 12.22596 | 458 ft | 34 kts | 85° |
| 2026-05-06 19:07 | 51.41276 | 12.22966 | 458 ft | 32 kts | 86° |
| 2026-05-06 19:07 | 51.41276 | 12.23221 | 465 ft | 15 kts | 120° |
| 2026-05-06 19:08 | 51.41263 | 12.23261 | 464 ft | 7 kts | 98° |
| 2026-05-06 19:08 | 51.41303 | 12.23274 | 464 ft | 11 kts | 341° |
| 2026-05-06 19:08 | 51.41393 | 12.23245 | 459 ft | 15 kts | 345° |
| 2026-05-06 19:08 | 51.41499 | 12.23232 | 458 ft | 15 kts | 360° |
| 2026-05-06 19:09 | 51.41546 | 12.23229 | 461 ft | 8 kts | 357° |
| 2026-05-06 19:09 | 51.41607 | 12.23178 | 464 ft | 10 kts | 291° |
| 2026-05-06 19:09 | 51.41629 | 12.23052 | 463 ft | 17 kts | 286° |
| 2026-05-06 19:09 | 51.41668 | 12.22851 | 461 ft | 19 kts | 290° |
| 2026-05-06 19:10 | 51.41700 | 12.22637 | 460 ft | 20 kts | 286° |
| 2026-05-06 19:10 | 51.41743 | 12.22397 | 455 ft | 22 kts | 285° |
| 2026-05-06 19:10 | 51.41788 | 12.22141 | 448 ft | 22 kts | 285° |
| 2026-05-06 19:10 | 51.41827 | 12.22083 | 446 ft | 9 kts | 3° |
| 2026-05-06 19:11 | 51.41892 | 12.22109 | 444 ft | 0 kts | 15° |